Time;durP1;ratioP1;P1;durP2;ratioP2;P2;SDS_P1;SDS_P2;PMS_P1;PMS_P2;Temp;Humidity;BMP_temperature;BMP_pressure;BME280_temperature;BME280_humidity;BME280_pressure;Samples;Min_cycle;Max_cycle;Signal;HPM_P1;HPM_P2
2023/04/01 03:00:59;;;;;;;0.30;0.20;;;19.00;51.40;;;;;;5767865;22;45802;-60
2023/04/01 03:03:24;;;;;;;0.20;0.20;;;18.90;51.40;;;;;;4986992;28;45153;-58
2023/04/01 03:05:50;;;;;;;0.50;0.20;;;18.90;51.30;;;;;;5001945;28;45280;-59
2023/04/01 03:08:15;;;;;;;0.20;0.20;;;18.90;51.30;;;;;;5010873;28;45043;-58
2023/04/01 03:10:41;;;;;;;0.30;0.22;;;18.90;51.30;;;;;;5000238;28;45184;-56
2023/04/01 03:13:06;;;;;;;0.10;0.10;;;18.90;51.40;;;;;;4987133;28;44909;-57
2023/04/01 03:15:32;;;;;;;0.38;0.20;;;18.90;51.40;;;;;;4968408;28;46615;-57
2023/04/01 03:17:57;;;;;;;0.38;0.20;;;18.90;51.40;;;;;;5000591;28;45769;-58
2023/04/01 03:20:23;;;;;;;0.50;0.30;;;18.90;51.30;;;;;;5001506;28;45672;-58
2023/04/01 03:22:49;;;;;;;0.43;0.30;;;18.90;51.40;;;;;;5004535;28;45282;-59
2023/04/01 03:25:14;;;;;;;0.20;0.20;;;18.90;51.40;;;;;;5001737;28;45625;-58
2023/04/01 03:27:40;;;;;;;0.10;0.10;;;18.90;51.40;;;;;;4991438;28;45039;-58
2023/04/01 03:30:06;;;;;;;0.47;0.20;;;18.90;51.30;;;;;;4989923;28;45084;-58
2023/04/01 03:32:32;;;;;;;0.25;0.15;;;18.90;51.30;;;;;;4986317;28;45461;-59
2023/04/01 03:34:57;;;;;;;0.52;0.30;;;18.90;51.30;;;;;;4998757;28;47371;-59
2023/04/01 03:37:23;;;;;;;0.22;0.20;;;18.90;51.30;;;;;;4984808;28;45150;-58
2023/04/01 03:39:49;;;;;;;0.30;0.20;;;18.90;51.30;;;;;;4999893;28;44989;-59
2023/04/01 03:42:15;;;;;;;0.50;0.35;;;18.90;51.40;;;;;;4985028;28;45100;-58
2023/04/01 03:44:40;;;;;;;0.45;0.30;;;18.90;51.40;;;;;;4985410;28;45063;-58
2023/04/01 03:47:06;;;;;;;0.30;0.30;;;18.80;51.90;;;;;;4996942;28;45060;-58
2023/04/01 03:49:32;;;;;;;0.43;0.20;;;18.80;51.30;;;;;;4988340;28;44944;-58
2023/04/01 03:51:58;;;;;;;0.43;0.30;;;18.80;51.30;;;;;;4997210;28;45494;-58
2023/04/01 03:54:24;;;;;;;0.10;0.10;;;18.80;51.30;;;;;;5005399;28;45329;-58
2023/04/01 03:56:50;;;;;;;0.40;0.20;;;18.80;51.30;;;;;;4996661;28;44953;-58
2023/04/01 03:59:15;;;;;;;0.55;0.20;;;18.80;51.30;;;;;;5004854;28;45210;-58
2023/04/01 04:01:41;;;;;;;0.20;0.20;;;18.80;51.30;;;;;;4992599;28;45111;-58
2023/04/01 04:04:06;;;;;;;0.40;0.30;;;18.80;51.40;;;;;;4983484;28;46379;-59
2023/04/01 04:06:32;;;;;;;0.20;0.20;;;18.80;51.30;;;;;;4983094;28;45232;-59
2023/04/01 04:08:58;;;;;;;0.30;0.20;;;18.80;51.30;;;;;;5005048;28;44920;-58
2023/04/01 04:11:23;;;;;;;0.30;0.20;;;18.80;51.30;;;;;;4998140;28;45059;-55
2023/04/01 04:13:49;;;;;;;0.20;0.20;;;18.80;51.30;;;;;;4984991;28;45111;-57
2023/04/01 04:16:15;;;;;;;0.20;0.20;;;18.80;51.90;;;;;;4976531;28;45362;-58
2023/04/01 04:18:40;;;;;;;2.67;0.30;;;18.80;51.30;;;;;;4974459;28;45122;-55
2023/04/01 04:21:06;;;;;;;0.40;0.30;;;18.80;51.30;;;;;;5001751;28;44868;-56
2023/04/01 04:23:33;;;;;;;0.20;0.20;;;18.80;51.30;;;;;;5005976;28;45876;-57
2023/04/01 04:25:59;;;;;;;0.35;0.30;;;18.80;51.30;;;;;;4999088;28;45334;-57
2023/04/01 04:28:26;;;;;;;0.22;0.20;;;18.80;51.30;;;;;;5005486;28;45255;-58
2023/04/01 04:30:52;;;;;;;0.50;0.30;;;18.80;51.30;;;;;;4974002;28;45965;-59
2023/04/01 04:33:17;;;;;;;0.25;0.20;;;18.70;51.30;;;;;;4997511;28;46947;-57
2023/04/01 04:35:43;;;;;;;0.17;0.17;;;18.70;51.30;;;;;;4979216;28;46468;-56
2023/04/01 04:38:08;;;;;;;0.20;0.20;;;18.70;51.30;;;;;;4987080;28;45343;-57
2023/04/01 04:40:39;;;;;;;0.20;0.20;;;18.70;51.30;;;;;;4996712;28;44740;-58
2023/04/01 04:43:04;;;;;;;0.22;0.22;;;18.70;51.30;;;;;;5001713;28;46461;-57
2023/04/01 04:45:30;;;;;;;0.20;0.20;;;18.70;51.30;;;;;;4994064;28;45893;-55
2023/04/01 04:47:56;;;;;;;0.30;0.20;;;18.70;51.30;;;;;;5000356;28;44888;-57
2023/04/01 04:50:22;;;;;;;0.20;0.13;;;18.70;51.30;;;;;;4951561;28;45170;-57
2023/04/01 04:52:48;;;;;;;0.30;0.20;;;18.70;51.30;;;;;;4988168;28;45216;-58
2023/04/01 04:55:14;;;;;;;0.28;0.20;;;18.70;51.30;;;;;;4979985;28;44995;-56
2023/04/01 04:57:40;;;;;;;0.50;0.30;;;18.70;51.30;;;;;;4991842;28;45061;-55
2023/04/01 05:00:07;;;;;;;0.20;0.20;;;18.70;51.30;;;;;;4999252;28;45072;-55
2023/04/01 05:02:33;;;;;;;0.20;0.20;;;18.70;51.30;;;;;;4976622;28;45958;-54
2023/04/01 05:04:58;;;;;;;0.70;0.40;;;18.70;51.30;;;;;;4982800;28;44927;-58
2023/04/01 05:07:24;;;;;;;0.25;0.20;;;18.70;51.30;;;;;;4976051;28;45406;-58
2023/04/01 05:09:49;;;;;;;0.20;0.17;;;18.70;51.30;;;;;;4979913;28;45296;-58
2023/04/01 05:12:15;;;;;;;0.75;0.40;;;18.60;51.30;;;;;;4978206;28;45092;-59
2023/04/01 05:14:40;;;;;;;0.47;0.28;;;18.60;51.20;;;;;;4988208;28;45273;-57
2023/04/01 05:17:10;;;;;;;0.28;0.20;;;18.70;51.30;;;;;;4979682;28;44883;-57
2023/04/01 05:19:36;;;;;;;0.82;0.30;;;18.70;51.30;;;;;;4986695;28;45056;-58
2023/04/01 05:22:01;;;;;;;0.30;0.20;;;18.60;51.20;;;;;;4976952;28;45596;-58
2023/04/01 05:24:27;;;;;;;0.30;0.20;;;18.60;51.20;;;;;;4985536;28;45323;-59
2023/04/01 05:26:52;;;;;;;0.40;0.20;;;18.60;51.20;;;;;;4979769;28;44797;-59
2023/04/01 05:29:18;;;;;;;0.20;0.20;;;18.60;51.20;;;;;;4983674;28;45694;-56
2023/04/01 05:31:43;;;;;;;0.52;0.20;;;18.60;51.20;;;;;;4979999;28;46202;-57
2023/04/01 05:34:09;;;;;;;0.50;0.30;;;18.60;51.20;;;;;;4981346;28;45494;-54
2023/04/01 05:36:35;;;;;;;0.20;0.10;;;18.60;51.20;;;;;;4980016;28;44959;-58
2023/04/01 05:39:01;;;;;;;0.30;0.13;;;18.60;51.30;;;;;;4982335;28;45091;-57
2023/04/01 05:41:26;;;;;;;0.20;0.20;;;18.60;51.30;;;;;;4978090;28;45178;-58
2023/04/01 05:43:52;;;;;;;0.40;0.20;;;18.60;51.20;;;;;;4978406;28;45578;-57
2023/04/01 05:46:17;;;;;;;0.28;0.13;;;18.60;51.20;;;;;;4974924;28;45111;-58
2023/04/01 05:48:43;;;;;;;0.43;0.13;;;18.60;51.20;;;;;;4989035;28;46138;-56
2023/04/01 05:51:14;;;;;;;0.20;0.20;;;18.60;51.20;;;;;;4976094;28;45600;-59
2023/04/01 05:53:40;;;;;;;0.20;0.20;;;18.60;51.30;;;;;;4984222;28;44668;-58
2023/04/01 05:56:09;;;;;;;0.40;0.20;;;18.60;51.20;;;;;;4980251;28;45282;-59
2023/04/01 05:58:35;;;;;;;0.20;0.20;;;18.60;51.20;;;;;;4973087;28;45092;-57
2023/04/01 06:01:02;;;;;;;0.25;0.10;;;18.60;51.30;;;;;;4971677;28;45110;-58
2023/04/01 06:03:27;;;;;;;0.38;0.20;;;18.60;51.30;;;;;;4983733;28;44961;-58
2023/04/01 06:05:53;;;;;;;0.30;0.20;;;18.50;51.30;;;;;;4977846;28;45178;-59
2023/04/01 06:08:18;;;;;;;0.20;0.20;;;18.60;51.30;;;;;;4989553;28;45364;-58
2023/04/01 06:11:00;;;;;;;0.22;0.20;;;18.60;51.30;;;;;;4974685;28;45034;-59
2023/04/01 06:14:05;;;;;;;0.20;0.17;;;18.50;51.30;;;;;;4980659;28;45068;-58
2023/04/01 06:16:56;;;;;;;0.68;0.22;;;18.60;51.30;;;;;;4974386;28;45083;-59
2023/04/01 06:19:43;;;;;;;0.47;0.25;;;18.50;51.30;;;;;;4999327;28;45000;-58
2023/04/01 06:22:18;;;;;;;0.20;0.15;;;18.60;51.40;;;;;;4958708;28;45150;-57
2023/04/01 06:25:05;;;;;;;0.73;0.25;;;18.50;51.30;;;;;;4990927;28;45299;-57
2023/04/01 06:27:55;;;;;;;0.32;0.20;;;18.50;51.30;;;;;;4945549;28;45306;-57
2023/04/01 06:30:33;;;;;;;0.50;0.20;;;18.60;51.20;;;;;;4975276;28;45248;-57
2023/04/01 06:33:12;;;;;;;0.30;0.10;;;18.60;51.20;;;;;;4984213;28;45538;-60
2023/04/01 06:36:02;;;;;;;0.15;0.15;;;18.60;51.20;;;;;;4959463;28;44989;-58
2023/04/01 06:38:52;;;;;;;0.60;0.20;;;18.60;51.20;;;;;;4971579;28;45739;-57
2023/04/01 06:41:45;;;;;;;0.35;0.20;;;18.50;51.30;;;;;;4970668;28;45016;-59
2023/04/01 06:44:21;;;;;;;0.10;0.10;;;18.50;51.40;;;;;;4984764;28;45151;-57
2023/04/01 06:46:48;;;;;;;0.20;0.20;;;18.50;51.40;;;;;;4972760;28;44892;-59
2023/04/01 06:49:32;;;;;;;0.30;0.20;;;18.50;51.30;;;;;;4983817;28;44961;-58
2023/04/01 06:52:22;;;;;;;0.20;0.20;;;18.50;51.30;;;;;;4977002;28;45268;-56
2023/04/01 06:55:03;;;;;;;0.57;0.20;;;18.50;51.30;;;;;;4965345;28;46113;-59
2023/04/01 06:57:41;;;;;;;0.30;0.20;;;18.50;51.30;;;;;;4980434;28;45099;-57
2023/04/01 07:00:27;;;;;;;0.20;0.20;;;18.50;51.30;;;;;;4958540;28;45181;-59
2023/04/01 07:03:02;;;;;;;0.43;0.10;;;18.50;51.30;;;;;;4964856;28;45526;-57
2023/04/01 07:05:30;;;;;;;0.22;0.10;;;18.50;51.30;;;;;;4986951;28;45859;-59
2023/04/01 07:07:57;;;;;;;0.32;0.20;;;18.50;51.30;;;;;;4962809;28;44966;-57
2023/04/01 07:10:43;;;;;;;0.30;0.20;;;18.50;51.30;;;;;;4983572;28;44993;-56
2023/04/01 07:13:25;;;;;;;0.20;0.17;;;18.50;51.30;;;;;;4977559;28;44911;-58
2023/04/01 07:16:09;;;;;;;0.30;0.20;;;18.50;51.20;;;;;;4980604;28;46587;-58
2023/04/01 07:18:42;;;;;;;0.10;0.10;;;18.50;51.20;;;;;;4967339;28;44906;-58
2023/04/01 07:21:29;;;;;;;0.40;0.20;;;18.50;51.20;;;;;;4988377;28;44897;-59
2023/04/01 07:23:56;;;;;;;0.25;0.10;;;18.50;51.20;;;;;;4977075;28;45124;-57
2023/04/01 07:26:23;;;;;;;0.10;0.10;;;18.50;51.20;;;;;;4965982;28;46104;-58
2023/04/01 07:28:50;;;;;;;0.40;0.28;;;18.50;51.20;;;;;;4986907;28;44959;-57
2023/04/01 07:31:18;;;;;;;0.10;0.10;;;18.50;51.10;;;;;;4975373;28;45178;-57
2023/04/01 07:33:56;;;;;;;0.80;0.10;;;18.50;51.10;;;;;;4983356;28;44987;-58
2023/04/01 07:36:31;;;;;;;0.52;0.20;;;18.50;51.10;;;;;;4975776;28;45798;-58
2023/04/01 07:39:25;;;;;;;0.35;0.17;;;18.50;51.20;;;;;;4969955;28;45001;-58
2023/04/01 07:41:52;;;;;;;;;;;18.50;51.10;;;;;;4953664;28;45036;-56
2023/04/01 07:44:36;;;;;;;0.30;0.22;;;18.50;51.10;;;;;;4964188;28;44899;-56
2023/04/01 07:47:43;;;;;;;0.28;0.20;;;18.50;51.10;;;;;;4974839;28;46428;-56
2023/04/01 07:50:14;;;;;;;0.50;0.40;;;18.50;51.10;;;;;;4949100;28;45199;-54
2023/04/01 07:52:45;;;;;;;0.30;0.20;;;18.50;51.00;;;;;;4979725;28;45325;-57
2023/04/01 07:55:47;;;;;;;0.40;0.20;;;18.50;51.00;;;;;;4981198;28;44803;-54
2023/04/01 07:58:17;;;;;;;0.25;0.15;;;18.50;51.00;;;;;;4982479;28;45239;-57
2023/04/01 08:00:49;;;;;;;0.10;0.10;;;18.50;51.00;;;;;;4971283;28;45578;-58
2023/04/01 08:03:35;;;;;;;0.43;0.20;;;18.60;51.00;;;;;;4967291;28;45039;-58
2023/04/01 08:06:15;;;;;;;0.45;0.20;;;18.50;51.00;;;;;;4977641;28;44979;-59
2023/04/01 08:08:58;;;;;;;0.15;0.15;;;18.60;51.00;;;;;;4999356;28;47027;-58
2023/04/01 08:11:35;;;;;;;0.20;0.13;;;18.50;51.60;;;;;;4977499;28;44948;-59
2023/04/01 08:14:09;;;;;;;0.93;0.20;;;18.50;51.00;;;;;;4991843;28;45557;-59
2023/04/01 08:16:53;;;;;;;0.13;0.13;;;18.60;51.00;;;;;;4996520;28;45295;-58
2023/04/01 08:19:39;;;;;;;0.20;0.20;;;18.50;51.00;;;;;;4988331;28;45190;-59
2023/04/01 08:22:11;;;;;;;0.20;0.20;;;18.50;50.90;;;;;;4979733;28;44956;-59
2023/04/01 08:24:44;;;;;;;0.30;0.10;;;18.50;51.00;;;;;;4971397;28;45069;-58
2023/04/01 08:27:17;;;;;;;0.38;0.30;;;18.60;50.90;;;;;;4984947;28;44777;-57
2023/04/01 08:29:46;;;;;;;;;;;18.60;50.90;;;;;;4973002;28;46223;-58
2023/04/01 08:32:24;;;;;;;0.50;0.10;;;18.60;50.90;;;;;;4975216;28;44959;-57
2023/04/01 08:35:02;;;;;;;0.03;0.03;;;18.50;50.80;;;;;;4970877;28;45033;-57
2023/04/01 08:37:31;;;;;;;0.70;0.25;;;18.60;50.90;;;;;;4968244;28;45271;-58
2023/04/01 08:40:21;;;;;;;0.17;0.10;;;18.50;50.90;;;;;;4985560;28;45066;-58
2023/04/01 08:43:10;;;;;;;0.10;0.10;;;18.60;50.90;;;;;;4999238;28;44884;-58
2023/04/01 08:45:41;;;;;;;0.43;0.20;;;18.60;50.90;;;;;;4980330;28;45204;-59
2023/04/01 08:48:34;;;;;;;0.13;0.13;;;18.50;50.90;;;;;;4985974;28;45576;-59
2023/04/01 08:51:27;;;;;;;0.63;0.20;;;18.50;50.90;;;;;;4977844;28;45068;-58
2023/04/01 08:54:08;;;;;;;0.10;0.10;;;18.50;51.00;;;;;;4986916;28;45042;-57
2023/04/01 08:56:42;;;;;;;0.55;0.20;;;18.50;51.00;;;;;;4995015;28;45031;-57
2023/04/01 08:59:10;;;;;;;0.25;0.17;;;18.50;51.00;;;;;;4973918;28;44961;-58
2023/04/01 09:01:57;;;;;;;0.17;0.17;;;18.50;51.00;;;;;;4989832;28;46145;-57
2023/04/01 09:04:31;;;;;;;0.20;0.20;;;18.50;50.90;;;;;;4980314;28;44827;-56
2023/04/01 09:07:15;;;;;;;0.10;0.10;;;18.50;50.90;;;;;;4990902;28;45259;-59
2023/04/01 09:09:59;;;;;;;0.28;0.28;;;18.50;50.90;;;;;;4972652;28;45351;-58
2023/04/01 09:12:42;;;;;;;0.10;0.10;;;18.50;51.00;;;;;;4986271;28;45007;-57
2023/04/01 09:15:20;;;;;;;0.43;0.20;;;18.50;50.90;;;;;;4992918;28;45090;-58
2023/04/01 09:18:10;;;;;;;0.10;0.10;;;18.50;51.00;;;;;;4984289;28;45174;-60
2023/04/01 09:21:08;;;;;;;0.60;0.30;;;18.50;50.90;;;;;;4976544;28;45524;-58
2023/04/01 09:24:18;;;;;;;0.20;0.10;;;18.50;50.90;;;;;;4994293;28;46015;-59
2023/04/01 09:27:12;;;;;;;0.20;0.10;;;18.50;51.10;;;;;;4975374;28;45036;-61
2023/04/01 09:30:06;;;;;;;0.30;0.20;;;18.50;50.80;;;;;;4987768;28;45123;-59
2023/04/01 09:32:42;;;;;;;0.52;0.20;;;18.50;50.90;;;;;;4972915;28;44912;-57
2023/04/01 09:35:21;;;;;;;0.20;0.20;;;18.50;50.90;;;;;;4992675;28;46329;-59
2023/04/01 09:38:19;;;;;;;0.13;0.10;;;18.50;50.90;;;;;;4981076;28;44671;-58
2023/04/01 09:40:44;;;;;;;0.38;0.30;;;18.50;50.90;;;;;;4989570;28;45014;-59
2023/04/01 09:43:24;;;;;;;0.30;0.15;;;18.50;50.90;;;;;;4998794;28;45831;-57
2023/04/01 09:46:10;;;;;;;0.20;0.10;;;18.50;50.90;;;;;;4968496;28;46203;-59
2023/04/01 09:49:13;;;;;;;0.03;0.03;;;18.50;50.90;;;;;;4983830;28;45101;-58
2023/04/01 09:51:52;;;;;;;0.13;0.10;;;18.50;50.90;;;;;;4992098;28;45280;-57
2023/04/01 09:54:32;;;;;;;0.25;0.10;;;18.50;50.90;;;;;;4995889;28;45167;-59
2023/04/01 09:57:01;;;;;;;0.15;0.10;;;18.50;50.90;;;;;;4988000;28;45480;-57
2023/04/01 09:59:38;;;;;;;0.10;0.10;;;18.50;51.00;;;;;;4998185;28;44987;-58
2023/04/01 10:02:44;;;;;;;0.20;0.10;;;18.50;50.90;;;;;;4989254;28;45032;-57
2023/04/01 10:05:27;;;;;;;0.40;0.20;;;18.50;50.90;;;;;;4982035;28;45072;-59
2023/04/01 10:07:57;;;;;;;0.10;0.10;;;18.50;50.90;;;;;;4987680;28;46466;-59
2023/04/01 10:10:40;;;;;;;0.10;0.10;;;18.50;50.90;;;;;;4976915;28;45339;-59
2023/04/01 10:13:30;;;;;;;0.13;0.10;;;18.50;50.90;;;;;;4999397;28;45520;-58
2023/04/01 10:16:33;;;;;;;0.50;0.20;;;18.50;50.70;;;;;;4981529;28;45763;-57
2023/04/01 10:19:23;;;;;;;0.67;0.30;;;18.50;50.70;;;;;;4999633;28;46122;-58
2023/04/01 10:22:33;;;;;;;0.45;0.20;;;18.50;50.80;;;;;;4994169;28;45416;-56
2023/04/01 10:25:15;;;;;;;0.52;0.28;;;18.50;50.80;;;;;;5001147;28;44916;-60
2023/04/01 10:28:04;;;;;;;0.20;0.20;;;18.50;50.80;;;;;;4987157;28;45058;-58
2023/04/01 10:31:00;;;;;;;0.15;0.15;;;18.50;50.70;;;;;;4979775;28;46125;-58
2023/04/01 10:33:38;;;;;;;0.20;0.10;;;18.50;50.70;;;;;;4999927;28;45333;-57
2023/04/01 10:36:18;;;;;;;0.17;0.10;;;18.50;50.80;;;;;;4980633;28;44972;-54
2023/04/01 10:39:13;;;;;;;0.25;0.20;;;18.50;50.70;;;;;;4988018;28;45264;-54
2023/04/01 10:42:01;;;;;;;0.20;0.20;;;18.50;50.70;;;;;;4980620;28;45529;-57
2023/04/01 10:44:54;;;;;;;0.20;0.20;;;18.50;50.80;;;;;;5000292;28;45053;-58
2023/04/01 10:47:26;;;;;;;0.10;0.10;;;18.50;50.80;;;;;;4987908;28;45031;-56
2023/04/01 10:50:15;;;;;;;1.27;0.20;;;18.50;50.80;;;;;;4997558;28;45055;-53
2023/04/01 10:53:12;;;;;;;0.35;0.20;;;18.50;50.70;;;;;;4982483;28;46319;-55
2023/04/01 10:56:16;;;;;;;0.10;0.10;;;18.50;50.70;;;;;;4995001;28;44944;-56
2023/04/01 10:59:01;;;;;;;0.10;0.10;;;18.50;50.70;;;;;;4982384;28;44960;-58
2023/04/01 11:01:36;;;;;;;0.20;0.10;;;18.50;50.70;;;;;;4988231;28;45423;-58
2023/04/01 11:04:23;;;;;;;0.10;0.10;;;18.50;50.80;;;;;;4995877;28;45834;-56
2023/04/01 11:07:10;;;;;;;0.35;0.20;;;18.50;50.70;;;;;;4977601;28;45347;-58
2023/04/01 11:10:06;;;;;;;0.10;0.10;;;18.50;50.70;;;;;;5001725;28;44865;-58
2023/04/01 11:12:40;;;;;;;0.50;0.10;;;18.50;50.70;;;;;;4975231;28;44847;-58
2023/04/01 11:15:15;;;;;;;0.35;0.15;;;18.50;50.80;;;;;;4997969;28;45186;-59
2023/04/01 11:18:29;;;;;;;0.43;0.15;;;18.50;50.80;;;;;;4981025;28;44975;-57
2023/04/01 11:21:09;;;;;;;;;;;18.50;50.80;;;;;;4954229;28;45149;-58
2023/04/01 11:23:47;;;;;;;0.10;0.10;;;18.50;50.90;;;;;;4982805;28;45163;-59
2023/04/01 11:26:16;;;;;;;0.10;0.10;;;18.50;50.80;;;;;;4968665;28;46552;-60
2023/04/01 11:29:07;;;;;;;1.45;0.20;;;18.50;50.80;;;;;;4988702;28;45168;-58
2023/04/01 11:31:54;;;;;;;1.88;0.10;;;18.50;50.80;;;;;;4990326;28;44894;-59
2023/04/01 11:34:43;;;;;;;0.20;0.20;;;18.50;50.80;;;;;;4989770;28;44949;-59
2023/04/01 11:37:20;;;;;;;0.10;0.10;;;18.50;50.90;;;;;;4981561;28;46150;-58
2023/04/01 11:40:26;;;;;;;0.43;0.20;;;18.50;50.90;;;;;;5003582;28;44956;-59
2023/04/01 11:43:02;;;;;;;0.90;0.20;;;18.50;50.90;;;;;;4985010;28;44966;-59
2023/04/01 11:45:49;;;;;;;0.22;0.17;;;18.60;50.90;;;;;;4988905;28;45320;-57
2023/04/01 11:48:38;;;;;;;0.10;0.10;;;18.60;50.90;;;;;;4972763;28;46334;-58
2023/04/01 11:51:22;;;;;;;;;;;18.60;50.90;;;;;;4993442;28;44912;-58
2023/04/01 11:54:02;;;;;;;0.15;0.10;;;18.60;51.10;;;;;;5003677;28;45091;-59
2023/04/01 11:56:49;;;;;;;1.40;0.20;;;18.60;51.10;;;;;;4976503;28;45152;-58
2023/04/01 11:59:52;;;;;;;3.03;0.20;;;18.60;51.10;;;;;;4980730;28;45131;-57
2023/04/01 12:02:36;;;;;;;0.93;0.20;;;18.60;51.20;;;;;;4990255;28;45687;-59
2023/04/01 12:05:25;;;;;;;3.22;0.10;;;18.60;51.20;;;;;;4990951;28;45559;-57
2023/04/01 12:08:11;;;;;;;0.10;0.10;;;18.60;51.20;;;;;;4986681;28;45245;-58
2023/04/01 12:10:48;;;;;;;0.10;0.10;;;18.60;51.10;;;;;;4987284;28;45228;-57
2023/04/01 12:13:44;;;;;;;0.63;0.30;;;18.60;51.20;;;;;;5003505;28;44991;-57
2023/04/01 12:16:19;;;;;;;0.35;0.20;;;18.70;51.30;;;;;;4981361;28;45134;-57
2023/04/01 12:19:07;;;;;;;1.80;0.22;;;18.70;51.30;;;;;;4986192;28;44991;-58
2023/04/01 12:21:44;;;;;;;0.10;0.10;;;18.70;51.40;;;;;;4990476;28;45296;-60
2023/04/01 12:24:32;;;;;;;0.20;0.20;;;18.70;51.50;;;;;;4988992;28;46381;-58
2023/04/01 12:27:19;;;;;;;0.20;0.20;;;18.70;51.60;;;;;;4999005;28;45087;-60
2023/04/01 12:30:08;;;;;;;0.10;0.10;;;18.70;51.90;;;;;;5004804;28;44946;-59
2023/04/01 12:32:41;;;;;;;0.20;0.17;;;18.70;51.70;;;;;;4994561;28;45341;-59
2023/04/01 12:35:13;;;;;;;;;;;18.70;51.80;;;;;;4998835;28;44998;-57
2023/04/01 12:38:06;;;;;;;2.25;0.20;;;18.70;52.10;;;;;;4996934;28;44986;-59
2023/04/01 12:40:56;;;;;;;0.22;0.20;;;18.70;52.10;;;;;;4993258;28;45746;-58
2023/04/01 12:43:40;;;;;;;2.78;0.20;;;18.70;52.10;;;;;;4990540;28;45162;-58
2023/04/01 12:46:15;;;;;;;0.30;0.20;;;18.80;52.20;;;;;;4999529;28;45006;-58
2023/04/01 12:48:47;;;;;;;0.45;0.20;;;18.80;52.20;;;;;;5001350;28;44984;-59
2023/04/01 12:51:27;;;;;;;0.65;0.20;;;18.80;52.10;;;;;;4988114;28;45168;-57
2023/04/01 12:54:08;;;;;;;0.30;0.20;;;18.80;52.10;;;;;;5002645;28;46015;-57
2023/04/01 12:56:49;;;;;;;5.00;0.30;;;18.90;52.30;;;;;;4992204;28;45532;-59
2023/04/01 12:59:36;;;;;;;0.50;0.20;;;18.90;52.40;;;;;;4988494;28;45146;-58
2023/04/01 13:02:25;;;;;;;0.57;0.13;;;18.80;52.20;;;;;;4990281;28;45687;-58
2023/04/01 13:05:06;;;;;;;0.40;0.15;;;18.80;52.30;;;;;;4982467;28;44943;-59
2023/04/01 13:07:50;;;;;;;0.25;0.13;;;18.80;52.60;;;;;;4997298;28;44987;-58
2023/04/01 13:10:37;;;;;;;0.20;0.10;;;18.80;52.60;;;;;;4997681;28;45060;-58
2023/04/01 13:13:25;;;;;;;2.00;0.20;;;18.80;52.60;;;;;;4978731;28;45094;-59
2023/04/01 13:16:15;;;;;;;0.95;0.20;;;18.80;52.80;;;;;;4957792;28;46334;-60
2023/04/01 13:18:56;;;;;;;2.47;0.20;;;18.90;52.50;;;;;;4980569;28;44913;-60
2023/04/01 13:21:25;;;;;;;0.60;0.20;;;18.90;52.50;;;;;;4980650;28;45244;-58
2023/04/01 13:23:59;;;;;;;2.58;0.20;;;18.90;52.50;;;;;;4977906;28;45028;-59
2023/04/01 13:26:39;;;;;;;0.32;0.10;;;18.90;52.60;;;;;;4996876;28;45419;-58
2023/04/01 13:29:14;;;;;;;1.70;0.10;;;18.90;52.50;;;;;;4987443;28;45259;-59
2023/04/01 13:32:00;;;;;;;3.60;0.30;;;18.90;52.50;;;;;;4961006;28;44752;-56
2023/04/01 13:35:04;;;;;;;0.28;0.10;;;18.90;52.60;;;;;;4986768;28;45352;-59
2023/04/01 13:37:56;;;;;;;0.30;0.20;;;18.90;52.60;;;;;;4993460;28;45629;-57
2023/04/01 13:40:38;;;;;;;0.28;0.20;;;18.90;52.60;;;;;;4966434;28;45042;-58
2023/04/01 13:43:14;;;;;;;0.50;0.30;;;18.90;52.60;;;;;;5003421;28;45008;-58
2023/04/01 13:46:01;;;;;;;4.82;0.75;;;18.90;52.50;;;;;;4978285;28;45334;-62
2023/04/01 13:48:40;;;;;;;0.32;0.20;;;18.90;52.60;;;;;;5004269;28;44921;-58
2023/04/01 13:51:39;;;;;;;0.20;0.10;;;18.90;52.40;;;;;;4966238;28;44942;-61
2023/04/01 13:54:21;;;;;;;0.10;0.10;;;18.90;52.50;;;;;;5002539;28;45049;-60
2023/04/01 13:56:55;;;;;;;0.30;0.10;;;18.90;52.40;;;;;;4977435;28;45468;-60
2023/04/01 13:59:48;;;;;;;0.30;0.25;;;18.90;52.40;;;;;;4999997;28;46361;-60
2023/04/01 14:02:20;;;;;;;2.55;0.20;;;18.90;52.50;;;;;;4989921;28;45217;-61
2023/04/01 14:05:04;;;;;;;0.70;0.20;;;18.90;52.50;;;;;;5003163;28;45507;-61
2023/04/01 14:07:41;;;;;;;0.68;0.22;;;18.80;52.30;;;;;;5001577;28;44911;-60
2023/04/01 14:10:43;;;;;;;4.70;0.30;;;18.90;53.00;;;;;;4988489;28;45128;-58
2023/04/01 14:13:42;;;;;;;3.70;0.20;;;18.80;52.50;;;;;;4995963;28;45005;-59
2023/04/01 14:16:36;;;;;;;2.80;0.20;;;18.80;52.50;;;;;;4961737;28;45506;-60
2023/04/01 14:19:25;;;;;;;0.38;0.20;;;18.80;52.40;;;;;;4971170;28;44826;-60
2023/04/01 14:22:20;;;;;;;0.10;0.10;;;18.80;52.50;;;;;;4969719;28;45983;-59
2023/04/01 14:25:13;;;;;;;0.47;0.20;;;18.80;52.40;;;;;;4930525;28;44955;-59
2023/04/01 14:28:02;;;;;;;1.40;0.10;;;18.80;52.50;;;;;;5001649;28;45037;-59
2023/04/01 14:30:41;;;;;;;0.10;0.10;;;18.80;52.50;;;;;;4997230;28;46263;-59
2023/04/01 14:33:13;;;;;;;0.13;0.10;;;18.80;52.40;;;;;;4984046;28;45170;-59
2023/04/01 14:35:41;;;;;;;0.60;0.22;;;18.70;52.40;;;;;;4993310;28;45748;-59
2023/04/01 14:38:30;;;;;;;0.10;0.10;;;18.70;52.40;;;;;;4986725;28;45256;-58
2023/04/01 14:41:15;;;;;;;0.13;0.10;;;18.70;52.40;;;;;;4980559;28;45028;-58
2023/04/01 14:44:02;;;;;;;0.20;0.10;;;18.70;52.40;;;;;;5002722;28;45944;-60
2023/04/01 14:46:43;;;;;;;0.25;0.10;;;18.70;52.50;;;;;;4982675;28;45031;-59
2023/04/01 14:49:24;;;;;;;0.50;0.20;;;18.70;52.40;;;;;;4989358;28;44835;-58
2023/04/01 14:51:49;;;;;;;0.73;0.20;;;18.70;52.40;;;;;;4967315;28;44883;-58
2023/04/01 14:54:22;;;;;;;0.47;0.20;;;18.70;52.40;;;;;;4987447;28;45524;-56
2023/04/01 14:57:16;;;;;;;1.10;0.20;;;18.70;52.40;;;;;;4988148;28;45122;-57
2023/04/01 14:59:50;;;;;;;1.75;0.20;;;18.70;52.40;;;;;;5002247;28;44911;-58
2023/04/01 15:02:38;;;;;;;0.28;0.13;;;18.70;52.40;;;;;;4969634;28;45108;-58
2023/04/01 15:05:19;;;;;;;1.45;0.20;;;18.70;52.40;;;;;;4985730;28;45055;-57
2023/04/01 15:08:09;;;;;;;0.17;0.17;;;18.70;52.40;;;;;;4999427;28;45088;-58
2023/04/01 15:10:49;;;;;;;0.10;0.10;;;18.70;52.30;;;;;;4975416;28;44791;-57
2023/04/01 15:13:24;;;;;;;0.10;0.00;;;18.60;52.20;;;;;;4977199;28;45015;-57
2023/04/01 15:16:23;;;;;;;1.15;0.20;;;18.70;52.30;;;;;;4993047;28;46278;-57
2023/04/01 15:19:07;;;;;;;0.30;0.17;;;18.70;52.30;;;;;;4964571;28;45464;-56
2023/04/01 15:21:44;;;;;;;0.15;0.10;;;18.60;52.20;;;;;;4985402;28;44753;-59
2023/04/01 15:24:30;;;;;;;1.48;0.20;;;18.60;52.30;;;;;;4980955;28;45004;-57
2023/04/01 15:27:16;;;;;;;0.40;0.10;;;18.60;52.30;;;;;;4959566;28;45005;-58
2023/04/01 15:29:51;;;;;;;0.20;0.20;;;18.60;52.30;;;;;;5003267;28;44895;-59
2023/04/01 15:32:29;;;;;;;0.10;0.10;;;18.60;52.30;;;;;;4995810;28;44990;-59
2023/04/01 15:35:17;;;;;;;0.30;0.20;;;18.60;52.30;;;;;;4974217;28;45111;-58
2023/04/01 15:37:52;;;;;;;0.10;0.10;;;18.60;52.30;;;;;;5001970;28;46446;-58
2023/04/01 15:40:23;;;;;;;0.20;0.20;;;18.60;52.30;;;;;;4980953;28;44953;-57
2023/04/01 15:43:07;;;;;;;0.20;0.10;;;18.60;52.30;;;;;;4983885;28;44682;-58
2023/04/01 15:45:53;;;;;;;0.10;0.10;;;18.60;52.40;;;;;;4995805;28;45079;-59
2023/04/01 15:48:41;;;;;;;0.20;0.20;;;18.60;52.30;;;;;;4998902;28;46180;-58
2023/04/01 15:51:43;;;;;;;0.10;0.10;;;18.60;52.30;;;;;;4995443;28;45721;-58
2023/04/01 15:54:44;;;;;;;0.00;0.00;;;18.60;52.30;;;;;;5002532;28;44743;-57
2023/04/01 15:57:14;;;;;;;0.20;0.20;;;18.50;52.30;;;;;;4976800;28;45241;-58
2023/04/01 16:00:17;;;;;;;0.22;0.20;;;18.50;52.30;;;;;;5004558;28;45454;-56
2023/04/01 16:03:03;;;;;;;0.17;0.15;;;18.50;52.30;;;;;;4992769;28;45301;-60
2023/04/01 16:05:35;;;;;;;0.08;0.08;;;18.50;52.30;;;;;;4973844;28;44641;-57
2023/04/01 16:08:06;;;;;;;0.30;0.17;;;18.50;52.30;;;;;;4999181;28;44840;-61
2023/04/01 16:10:55;;;;;;;0.13;0.13;;;18.50;52.30;;;;;;4989434;28;45367;-59
2023/04/01 16:13:27;;;;;;;0.45;0.20;;;18.50;52.30;;;;;;4987410;28;44668;-59
2023/04/01 16:16:07;;;;;;;0.47;0.10;;;18.50;52.30;;;;;;4992841;28;45410;-58
2023/04/01 16:18:55;;;;;;;0.22;0.20;;;18.50;52.30;;;;;;5001274;28;45195;-59
2023/04/01 16:21:45;;;;;;;0.43;0.10;;;18.50;52.30;;;;;;4998435;28;46261;-58
2023/04/01 16:24:17;;;;;;;1.45;0.10;;;18.50;52.30;;;;;;4983787;28;44940;-59
2023/04/01 16:26:58;;;;;;;0.10;0.10;;;18.50;52.30;;;;;;4950547;28;45144;-59
2023/04/01 16:29:37;;;;;;;1.48;0.28;;;18.50;52.30;;;;;;4972603;28;44997;-59
2023/04/01 16:32:28;;;;;;;0.30;0.17;;;18.50;52.20;;;;;;4992278;28;45239;-56
2023/04/01 16:35:01;;;;;;;0.50;0.20;;;18.50;52.20;;;;;;5000281;28;44891;-59
2023/04/01 16:37:39;;;;;;;0.50;0.20;;;18.50;52.20;;;;;;4988212;28;44873;-58
2023/04/01 16:40:20;;;;;;;0.20;0.10;;;18.50;52.20;;;;;;4977142;28;45103;-58
2023/04/01 16:42:52;;;;;;;0.10;0.10;;;18.50;52.20;;;;;;4993817;28;45983;-59
2023/04/01 16:45:20;;;;;;;0.17;0.10;;;18.40;52.20;;;;;;4964692;28;44599;-59
2023/04/01 16:47:47;;;;;;;0.17;0.13;;;18.40;52.20;;;;;;5000305;28;45208;-59